createdAt,value
2022-09-17T00:03:39.673Z,99688.94
2022-09-17T00:08:41.899Z,99702.50
2022-09-17T00:13:44.326Z,99706.84
2022-09-17T00:18:45.568Z,99707.47
2022-09-17T00:23:47.081Z,99709.16
2022-09-17T00:28:53.017Z,99699.47
2022-09-17T00:33:55.024Z,99702.50
2022-09-17T00:38:58.822Z,99704.38
2022-09-17T00:44:21.931Z,99701.47
2022-09-17T00:49:28.482Z,99705.72
2022-09-17T00:54:29.857Z,99713.94
2022-09-17T00:59:31.373Z,99704.53
2022-09-17T01:04:32.672Z,99706.47
2022-09-17T01:09:53.339Z,99711.53
2022-09-17T01:15:12.057Z,99706.53
2022-09-17T01:20:19.256Z,99708.00
2022-09-17T01:25:53.395Z,99717.06
2022-09-17T01:31:25.513Z,99705.56
2022-09-17T01:37:02.278Z,99713.69
2022-09-17T01:42:17.598Z,99718.81
2022-09-17T01:47:27.638Z,99712.19
2022-09-17T01:52:33.771Z,99717.53
2022-09-17T01:57:45.278Z,99712.56
2022-09-17T02:02:53.609Z,99718.88
2022-09-17T02:08:04.601Z,99724.09
2022-09-17T02:13:21.654Z,99709.47
2022-09-17T02:18:29.335Z,99721.28
2022-09-17T02:23:36.677Z,99715.94
2022-09-17T02:28:41.876Z,99722.13
2022-09-17T02:33:48.071Z,99719.78
2022-09-17T02:38:58.362Z,99724.53
2022-09-17T02:44:13.161Z,99725.22
2022-09-17T02:49:32.362Z,99728.75
2022-09-17T02:54:55.867Z,99726.63
2022-09-17T03:00:22.273Z,99714.53
2022-09-17T03:05:25.710Z,99715.06
2022-09-17T03:10:33.331Z,99717.53
2022-09-17T03:15:34.590Z,99715.06
2022-09-17T03:20:35.933Z,99709.09
2022-09-17T03:25:37.428Z,99714.41
2022-09-17T03:30:38.692Z,99713.69
2022-09-17T03:35:44.003Z,99719.75
2022-09-17T03:40:45.308Z,99728.25
2022-09-17T03:45:47.529Z,99728.19
2022-09-17T03:50:49.041Z,99734.63
2022-09-17T03:55:50.404Z,99731.44
2022-09-17T04:00:57.558Z,99740.03
2022-09-17T04:05:59.622Z,99742.03
2022-09-17T04:11:00.881Z,99740.47
2022-09-17T04:16:03.098Z,99752.56
2022-09-17T04:21:04.574Z,99737.00
2022-09-17T04:26:06.128Z,99754.41
2022-09-17T04:31:07.553Z,99760.44
2022-09-17T04:36:08.978Z,99766.06
2022-09-17T04:41:10.362Z,99777.00
2022-09-17T04:46:11.797Z,99771.97
2022-09-17T04:51:13.217Z,99777.53
2022-09-17T04:56:14.468Z,99775.69
2022-09-17T05:01:18.559Z,99782.72
2022-09-17T05:06:19.902Z,99782.88
2022-09-17T05:11:21.253Z,99788.69
2022-09-17T05:16:22.625Z,99786.50
2022-09-17T05:21:24.301Z,99790.44
2022-09-17T05:26:25.561Z,99794.06
2022-09-17T05:31:26.892Z,99790.38
2022-09-17T05:36:28.148Z,99801.34
2022-09-17T05:41:29.379Z,99802.22
2022-09-17T05:46:30.915Z,99823.00
2022-09-17T05:51:32.162Z,99814.41
2022-09-17T05:56:33.690Z,99820.94
2022-09-17T06:01:34.993Z,99815.88
2022-09-17T06:06:37.728Z,99813.22
2022-09-17T06:11:39.230Z,99810.00
2022-09-17T06:16:40.501Z,99818.09
2022-09-17T06:21:41.864Z,99820.59
2022-09-17T06:26:43.129Z,99827.78
2022-09-17T06:31:44.861Z,99828.97
2022-09-17T06:36:46.349Z,99829.47
2022-09-17T06:41:47.793Z,99828.41
2022-09-17T06:46:51.062Z,99828.97
2022-09-17T06:51:52.721Z,99832.00
2022-09-17T06:56:54.041Z,99836.50
2022-09-17T07:01:55.800Z,99839.03
2022-09-17T07:06:57.183Z,99845.19
2022-09-17T07:11:58.627Z,99841.53
2022-09-17T07:16:59.959Z,99841.16
2022-09-17T07:22:01.248Z,99848.44
2022-09-17T07:27:02.638Z,99847.53
2022-09-17T07:32:03.958Z,99843.56
2022-09-17T07:37:05.242Z,99855.53
2022-09-17T07:42:06.584Z,99854.47
2022-09-17T07:47:08.111Z,99851.72
2022-09-17T07:52:09.491Z,99844.03
2022-09-17T07:57:10.785Z,99849.09
2022-09-17T08:02:14.102Z,99858.38
2022-09-17T08:07:15.549Z,99860.06
2022-09-17T08:12:18.305Z,99856.28
2022-09-17T08:17:19.603Z,99865.50
2022-09-17T08:22:21.000Z,99864.94
2022-09-17T08:27:22.639Z,99867.16
2022-09-17T08:32:24.619Z,99866.25
2022-09-17T08:37:29.708Z,99877.41
2022-09-17T08:42:39.582Z,99872.34
2022-09-17T08:47:45.935Z,99861.03
2022-09-17T08:53:16.042Z,99853.81
2022-09-17T08:58:41.026Z,99870.78
2022-09-17T09:03:56.639Z,99866.78
2022-09-17T09:09:03.857Z,99869.09
2022-09-17T09:14:14.044Z,99871.00
2022-09-17T09:19:28.062Z,99862.09
2022-09-17T09:24:36.324Z,99866.38
2022-09-17T09:30:04.074Z,99864.81
2022-09-17T09:35:27.257Z,99869.47
2022-09-17T09:40:36.182Z,99874.84
2022-09-17T09:45:46.403Z,99870.00
2022-09-17T09:51:06.506Z,99875.66
2022-09-17T09:56:28.333Z,99872.47
2022-09-17T10:01:30.209Z,99874.56
2022-09-17T10:06:31.770Z,99874.25
2022-09-17T10:11:33.599Z,99877.88
2022-09-17T10:16:36.204Z,99883.72
2022-09-17T10:21:40.199Z,99895.97
2022-09-17T10:26:41.626Z,99893.69
2022-09-17T10:31:54.346Z,99901.34
2022-09-17T10:36:57.152Z,99891.13
2022-09-17T10:42:20.865Z,99895.84
2022-09-17T10:47:25.753Z,99887.75
2022-09-17T10:52:31.227Z,99883.88
2022-09-17T10:57:51.350Z,99894.47
2022-09-17T11:03:16.320Z,99882.63
2022-09-17T11:08:24.683Z,99894.44
2022-09-17T11:13:36.853Z,99893.44
2022-09-17T11:18:45.532Z,99879.94
2022-09-17T11:24:20.775Z,99870.03
2022-09-17T11:30:16.866Z,99856.16
2022-09-17T11:35:25.760Z,99860.50
2022-09-17T11:40:36.679Z,99850.59
2022-09-17T11:45:43.381Z,99865.88
2022-09-17T11:50:51.354Z,99875.53
2022-09-17T11:56:02.722Z,99879.56
2022-09-17T12:01:09.995Z,99868.50
2022-09-17T12:06:28.608Z,99861.28
2022-09-17T12:11:58.912Z,99860.94
2022-09-17T12:17:03.238Z,99842.28
2022-09-17T12:22:12.159Z,99828.81
2022-09-17T12:27:39.561Z,99821.69
2022-09-17T12:33:02.911Z,99817.84
2022-09-17T12:38:14.294Z,99805.31
2022-09-17T12:43:20.829Z,99806.72
2022-09-17T12:49:07.466Z,99801.16
2022-09-17T12:54:17.827Z,99793.75
2022-09-17T12:59:20.649Z,99784.75
2022-09-17T13:05:01.077Z,99778.41
2022-09-17T13:10:23.253Z,99757.50
2022-09-17T13:15:33.757Z,99765.19
2022-09-17T13:20:40.229Z,99746.63
2022-09-17T13:25:53.089Z,99748.22
2022-09-17T13:31:00.499Z,99742.78
2022-09-17T13:36:03.940Z,99738.84
2022-09-17T13:41:20.231Z,99743.13
2022-09-17T13:46:24.149Z,99745.97
2022-09-17T13:51:34.369Z,99758.81
2022-09-17T13:56:41.257Z,99757.59
2022-09-17T14:01:48.700Z,99763.94
2022-09-17T14:06:53.299Z,99766.66
2022-09-17T14:11:54.594Z,99779.69
2022-09-17T14:16:55.889Z,99786.00
2022-09-17T14:22:00.908Z,99793.84
2022-09-17T14:27:14.353Z,99798.56
2022-09-17T14:32:32.190Z,99812.19
2022-09-17T14:37:41.997Z,99843.06
2022-09-17T14:42:44.033Z,99846.28
2022-09-17T14:47:45.442Z,99843.31
2022-09-17T14:52:51.354Z,99828.66
2022-09-17T14:57:56.418Z,99826.00
2022-09-17T15:03:00.841Z,99824.38
2022-09-17T15:08:11.254Z,99826.63
2022-09-17T15:13:17.016Z,99828.13
2022-09-17T15:18:18.559Z,99828.53
2022-09-17T15:23:26.401Z,99823.59
2022-09-17T15:28:33.954Z,99824.66
2022-09-17T15:33:35.391Z,99824.31
2022-09-17T15:38:38.994Z,99835.41
2022-09-17T15:43:41.229Z,99828.69
2022-09-17T15:48:42.477Z,99838.56
2022-09-17T15:53:52.378Z,99845.94
2022-09-17T15:59:00.584Z,99864.69
2022-09-17T16:04:08.921Z,99842.72
2022-09-17T16:09:46.746Z,99839.38
2022-09-17T16:14:52.348Z,99825.41
2022-09-17T16:19:55.706Z,99837.28
2022-09-17T16:24:57.156Z,99839.31
2022-09-17T16:30:05.024Z,99857.13
2022-09-17T16:35:06.750Z,99863.41
2022-09-17T16:40:12.700Z,99865.31
2022-09-17T16:45:16.277Z,99857.63
2022-09-17T16:50:18.254Z,99882.34
2022-09-17T16:55:20.336Z,99877.94
2022-09-17T17:00:22.482Z,99884.84
2022-09-17T17:05:25.868Z,99885.72
2022-09-17T17:10:27.132Z,99884.97
2022-09-17T17:15:28.391Z,99873.59
2022-09-17T17:20:31.878Z,99878.38
2022-09-17T17:25:33.222Z,99877.69
2022-09-17T17:30:35.213Z,99892.06
2022-09-17T17:35:39.078Z,99887.16
2022-09-17T17:40:40.451Z,99901.56
2022-09-17T17:45:41.772Z,99896.03
2022-09-17T17:50:43.072Z,99895.97
2022-09-17T17:55:44.357Z,99892.50
2022-09-17T18:00:45.611Z,99907.47
2022-09-17T18:05:47.086Z,99907.16
2022-09-17T18:10:56.110Z,99902.22
2022-09-17T18:15:59.504Z,99912.28
2022-09-17T18:21:06.901Z,99918.22
2022-09-17T18:26:11.981Z,99921.03
2022-09-17T18:31:33.606Z,99922.13
2022-09-17T18:36:36.611Z,99936.53
2022-09-17T18:41:40.222Z,99952.44
2022-09-17T18:46:42.534Z,99948.50
2022-09-17T18:51:43.984Z,99952.88
2022-09-17T18:56:45.245Z,99967.34
2022-09-17T19:01:46.724Z,99969.28
2022-09-17T19:06:48.025Z,99974.53
2022-09-17T19:11:49.382Z,99993.06
2022-09-17T19:16:50.638Z,99980.44
2022-09-17T19:21:51.937Z,99979.44
2022-09-17T19:26:53.478Z,99988.28
2022-09-17T19:31:54.769Z,99990.09
2022-09-17T19:36:56.038Z,100003.56
2022-09-17T19:41:57.505Z,99988.34
2022-09-17T19:46:58.901Z,100004.09
2022-09-17T19:52:00.360Z,100008.56
2022-09-17T19:57:01.609Z,99996.25
2022-09-17T20:02:04.181Z,100009.47
2022-09-17T20:07:05.516Z,100008.06
2022-09-17T20:12:07.030Z,100004.72
2022-09-17T20:17:08.677Z,100008.06
2022-09-17T20:22:09.908Z,100005.94
2022-09-17T20:27:11.198Z,100009.88
2022-09-17T20:32:12.782Z,100014.69
2022-09-17T20:37:14.119Z,100027.19
2022-09-17T20:42:15.829Z,100027.78
2022-09-17T20:47:17.109Z,100022.75
2022-09-17T20:52:21.154Z,100018.94
2022-09-17T20:57:22.594Z,100022.47
2022-09-17T21:02:25.297Z,100026.13
2022-09-17T21:07:27.091Z,100035.53
2022-09-17T21:12:28.385Z,100028.34
2022-09-17T21:17:31.664Z,100033.41
2022-09-17T21:22:32.910Z,100031.69
2022-09-17T21:27:34.221Z,100033.69
2022-09-17T21:32:38.985Z,100037.34
2022-09-17T21:37:40.257Z,100047.59
2022-09-17T21:42:41.596Z,100049.84
2022-09-17T21:47:43.070Z,100055.72
2022-09-17T21:52:44.326Z,100045.47
2022-09-17T21:57:45.575Z,100039.97
2022-09-17T22:02:46.998Z,100049.41
2022-09-17T22:07:48.388Z,100044.22
2022-09-17T22:12:49.658Z,100061.63
2022-09-17T22:17:50.932Z,100063.88
2022-09-17T22:22:53.271Z,100070.78
2022-09-17T22:28:19.455Z,100058.81
2022-09-17T22:33:15.762Z,100056.56
2022-09-17T22:38:17.078Z,100056.59
2022-09-17T22:43:18.345Z,100050.53
2022-09-17T22:48:19.627Z,100054.47
2022-09-17T22:53:20.925Z,100051.25
2022-09-17T22:58:24.227Z,100058.41
2022-09-17T23:03:26.542Z,100037.75
2022-09-17T23:08:28.805Z,100023.44
2022-09-17T23:13:30.154Z,100043.81
2022-09-17T23:18:32.354Z,100046.19
2022-09-17T23:23:35.439Z,100046.91
2022-09-17T23:28:37.689Z,100044.06
2022-09-17T23:33:39.219Z,100045.34
2022-09-17T23:38:42.464Z,100035.78
2022-09-17T23:43:46.365Z,100049.25
2022-09-17T23:48:48.754Z,100051.53
2022-09-17T23:53:50.730Z,100043.50
2022-09-17T23:58:54.177Z,100030.00
